sensor_id;sensor_type;location;lat;lon;timestamp;P1;durP1;ratioP1;P2;durP2;ratioP2
23155;SDS011;11746;50.876;4.246;2022-10-01T00:02:16;8.40;;;5.60;;
23155;SDS011;11746;50.876;4.246;2022-10-01T00:04:41;6.15;;;5.45;;
23155;SDS011;11746;50.876;4.246;2022-10-01T00:07:08;6.60;;;5.25;;
23155;SDS011;11746;50.876;4.246;2022-10-01T00:09:39;6.50;;;5.70;;
23155;SDS011;11746;50.876;4.246;2022-10-01T00:12:04;6.65;;;4.85;;
23155;SDS011;11746;50.876;4.246;2022-10-01T00:14:31;5.22;;;4.60;;
23155;SDS011;11746;50.876;4.246;2022-10-01T00:16:56;6.18;;;4.20;;
23155;SDS011;11746;50.876;4.246;2022-10-01T00:19:24;5.80;;;5.00;;
23155;SDS011;11746;50.876;4.246;2022-10-01T00:21:50;5.90;;;4.13;;
23155;SDS011;11746;50.876;4.246;2022-10-01T00:24:15;6.50;;;4.50;;
23155;SDS011;11746;50.876;4.246;2022-10-01T00:26:41;6.07;;;4.30;;
23155;SDS011;11746;50.876;4.246;2022-10-01T00:29:11;5.18;;;4.45;;
23155;SDS011;11746;50.876;4.246;2022-10-01T00:31:38;6.70;;;4.68;;
23155;SDS011;11746;50.876;4.246;2022-10-01T00:34:06;4.40;;;3.80;;
23155;SDS011;11746;50.876;4.246;2022-10-01T00:36:33;5.30;;;3.72;;
23155;SDS011;11746;50.876;4.246;2022-10-01T00:38:59;4.60;;;3.70;;
23155;SDS011;11746;50.876;4.246;2022-10-01T00:41:26;8.20;;;3.78;;
23155;SDS011;11746;50.876;4.246;2022-10-01T00:44:01;5.45;;;3.60;;
23155;SDS011;11746;50.876;4.246;2022-10-01T00:46:47;3.78;;;2.88;;
23155;SDS011;11746;50.876;4.246;2022-10-01T00:49:14;5.03;;;3.33;;
23155;SDS011;11746;50.876;4.246;2022-10-01T00:51:45;3.80;;;3.13;;
23155;SDS011;11746;50.876;4.246;2022-10-01T00:54:21;3.85;;;2.92;;
23155;SDS011;11746;50.876;4.246;2022-10-01T00:56:55;4.45;;;2.78;;
23155;SDS011;11746;50.876;4.246;2022-10-01T00:59:23;3.70;;;2.50;;
23155;SDS011;11746;50.876;4.246;2022-10-01T01:01:49;3.53;;;2.25;;
23155;SDS011;11746;50.876;4.246;2022-10-01T01:04:15;3.97;;;2.30;;
23155;SDS011;11746;50.876;4.246;2022-10-01T01:06:47;3.53;;;2.17;;
23155;SDS011;11746;50.876;4.246;2022-10-01T01:09:22;2.67;;;1.88;;
23155;SDS011;11746;50.876;4.246;2022-10-01T01:12:13;3.97;;;2.22;;
23155;SDS011;11746;50.876;4.246;2022-10-01T01:14:55;3.35;;;2.28;;
23155;SDS011;11746;50.876;4.246;2022-10-01T01:17:50;4.78;;;1.95;;
23155;SDS011;11746;50.876;4.246;2022-10-01T01:25:51;3.08;;;1.92;;
23155;SDS011;11746;50.876;4.246;2022-10-01T01:28:30;2.50;;;2.17;;
23155;SDS011;11746;50.876;4.246;2022-10-01T01:31:00;3.15;;;2.15;;
23155;SDS011;11746;50.876;4.246;2022-10-01T01:33:29;4.28;;;1.90;;
23155;SDS011;11746;50.876;4.246;2022-10-01T01:36:08;2.75;;;2.05;;
23155;SDS011;11746;50.876;4.246;2022-10-01T01:38:41;2.83;;;1.50;;
23155;SDS011;11746;50.876;4.246;2022-10-01T01:41:16;3.53;;;2.17;;
23155;SDS011;11746;50.876;4.246;2022-10-01T01:43:47;2.08;;;1.67;;
23155;SDS011;11746;50.876;4.246;2022-10-01T01:46:16;3.70;;;1.58;;
23155;SDS011;11746;50.876;4.246;2022-10-01T01:48:44;2.35;;;1.60;;
23155;SDS011;11746;50.876;4.246;2022-10-01T01:51:28;2.22;;;1.65;;
23155;SDS011;11746;50.876;4.246;2022-10-01T01:53:58;3.45;;;1.65;;
23155;SDS011;11746;50.876;4.246;2022-10-01T01:56:24;2.53;;;1.70;;
23155;SDS011;11746;50.876;4.246;2022-10-01T01:58:50;4.05;;;1.85;;
23155;SDS011;11746;50.876;4.246;2022-10-01T02:09:31;3.63;;;1.95;;
23155;SDS011;11746;50.876;4.246;2022-10-01T02:23:42;2.55;;;1.30;;
23155;SDS011;11746;50.876;4.246;2022-10-01T02:26:24;1.27;;;1.13;;
23155;SDS011;11746;50.876;4.246;2022-10-01T02:28:53;1.30;;;0.85;;
23155;SDS011;11746;50.876;4.246;2022-10-01T02:31:22;2.72;;;1.00;;
23155;SDS011;11746;50.876;4.246;2022-10-01T02:33:48;1.05;;;0.70;;
23155;SDS011;11746;50.876;4.246;2022-10-01T02:36:17;3.28;;;0.80;;
23155;SDS011;11746;50.876;4.246;2022-10-01T02:38:44;2.70;;;1.10;;
23155;SDS011;11746;50.876;4.246;2022-10-01T02:41:14;1.10;;;0.90;;
23155;SDS011;11746;50.876;4.246;2022-10-01T02:46:38;1.98;;;0.88;;
23155;SDS011;11746;50.876;4.246;2022-10-01T02:49:08;2.15;;;0.93;;
23155;SDS011;11746;50.876;4.246;2022-10-01T02:51:42;2.88;;;1.17;;
23155;SDS011;11746;50.876;4.246;2022-10-01T02:54:23;2.65;;;1.00;;
23155;SDS011;11746;50.876;4.246;2022-10-01T02:56:55;1.30;;;0.98;;
23155;SDS011;11746;50.876;4.246;2022-10-01T02:59:40;2.40;;;1.10;;
23155;SDS011;11746;50.876;4.246;2022-10-01T03:02:09;1.67;;;1.30;;
23155;SDS011;11746;50.876;4.246;2022-10-01T03:04:38;1.70;;;1.42;;
23155;SDS011;11746;50.876;4.246;2022-10-01T03:07:06;3.25;;;1.42;;
23155;SDS011;11746;50.876;4.246;2022-10-01T03:09:32;3.53;;;1.55;;
23155;SDS011;11746;50.876;4.246;2022-10-01T03:11:59;2.38;;;1.75;;
23155;SDS011;11746;50.876;4.246;2022-10-01T03:14:25;2.38;;;1.63;;
23155;SDS011;11746;50.876;4.246;2022-10-01T03:16:51;2.10;;;1.60;;
23155;SDS011;11746;50.876;4.246;2022-10-01T03:19:22;1.52;;;1.42;;
23155;SDS011;11746;50.876;4.246;2022-10-01T03:21:47;2.03;;;1.40;;
23155;SDS011;11746;50.876;4.246;2022-10-01T03:24:13;1.90;;;1.50;;
23155;SDS011;11746;50.876;4.246;2022-10-01T03:26:39;6.18;;;1.83;;
23155;SDS011;11746;50.876;4.246;2022-10-01T03:29:07;2.97;;;1.77;;
23155;SDS011;11746;50.876;4.246;2022-10-01T03:31:33;3.10;;;1.60;;
23155;SDS011;11746;50.876;4.246;2022-10-01T03:33:59;2.75;;;1.65;;
23155;SDS011;11746;50.876;4.246;2022-10-01T03:36:25;3.50;;;1.90;;
23155;SDS011;11746;50.876;4.246;2022-10-01T03:38:54;2.38;;;1.77;;
23155;SDS011;11746;50.876;4.246;2022-10-01T03:41:20;2.95;;;1.55;;
23155;SDS011;11746;50.876;4.246;2022-10-01T03:43:45;2.13;;;1.65;;
23155;SDS011;11746;50.876;4.246;2022-10-01T03:46:16;2.25;;;1.80;;
23155;SDS011;11746;50.876;4.246;2022-10-01T03:48:44;2.10;;;1.67;;
23155;SDS011;11746;50.876;4.246;2022-10-01T03:51:10;1.92;;;1.45;;
23155;SDS011;11746;50.876;4.246;2022-10-01T03:53:36;2.60;;;1.60;;
23155;SDS011;11746;50.876;4.246;2022-10-01T03:56:02;3.05;;;1.90;;
23155;SDS011;11746;50.876;4.246;2022-10-01T03:58:28;2.70;;;1.80;;
23155;SDS011;11746;50.876;4.246;2022-10-01T04:00:54;1.65;;;1.35;;
23155;SDS011;11746;50.876;4.246;2022-10-01T04:03:22;2.30;;;1.52;;
23155;SDS011;11746;50.876;4.246;2022-10-01T04:05:48;2.70;;;1.45;;
23155;SDS011;11746;50.876;4.246;2022-10-01T04:08:13;1.45;;;1.35;;
23155;SDS011;11746;50.876;4.246;2022-10-01T04:10:42;1.63;;;1.00;;
23155;SDS011;11746;50.876;4.246;2022-10-01T04:13:08;1.67;;;1.20;;
23155;SDS011;11746;50.876;4.246;2022-10-01T04:15:38;2.60;;;1.08;;
23155;SDS011;11746;50.876;4.246;2022-10-01T04:18:07;1.10;;;1.00;;
23155;SDS011;11746;50.876;4.246;2022-10-01T04:20:33;2.08;;;1.30;;
23155;SDS011;11746;50.876;4.246;2022-10-01T04:23:00;2.17;;;1.13;;
23155;SDS011;11746;50.876;4.246;2022-10-01T04:25:27;1.35;;;1.20;;
23155;SDS011;11746;50.876;4.246;2022-10-01T04:27:57;1.35;;;1.25;;
23155;SDS011;11746;50.876;4.246;2022-10-01T04:30:28;1.77;;;1.10;;
23155;SDS011;11746;50.876;4.246;2022-10-01T04:32:56;2.78;;;1.60;;
23155;SDS011;11746;50.876;4.246;2022-10-01T04:35:22;4.40;;;1.63;;
23155;SDS011;11746;50.876;4.246;2022-10-01T04:37:58;2.33;;;1.50;;
23155;SDS011;11746;50.876;4.246;2022-10-01T04:40:31;2.85;;;1.38;;
23155;SDS011;11746;50.876;4.246;2022-10-01T04:42:58;2.03;;;1.27;;
23155;SDS011;11746;50.876;4.246;2022-10-01T04:45:24;1.95;;;1.50;;
23155;SDS011;11746;50.876;4.246;2022-10-01T04:47:51;2.33;;;1.60;;
23155;SDS011;11746;50.876;4.246;2022-10-01T04:50:18;1.50;;;1.40;;
23155;SDS011;11746;50.876;4.246;2022-10-01T04:52:46;2.85;;;1.25;;
23155;SDS011;11746;50.876;4.246;2022-10-01T04:55:17;1.83;;;1.38;;
23155;SDS011;11746;50.876;4.246;2022-10-01T04:57:46;2.35;;;1.55;;
23155;SDS011;11746;50.876;4.246;2022-10-01T05:00:13;2.72;;;1.50;;
23155;SDS011;11746;50.876;4.246;2022-10-01T05:02:49;2.30;;;1.27;;
23155;SDS011;11746;50.876;4.246;2022-10-01T05:05:17;1.80;;;1.30;;
23155;SDS011;11746;50.876;4.246;2022-10-01T05:07:47;2.03;;;1.27;;
23155;SDS011;11746;50.876;4.246;2022-10-01T05:10:14;2.83;;;1.85;;
23155;SDS011;11746;50.876;4.246;2022-10-01T05:12:44;4.88;;;1.27;;
23155;SDS011;11746;50.876;4.246;2022-10-01T05:15:18;3.47;;;1.52;;
23155;SDS011;11746;50.876;4.246;2022-10-01T05:17:44;1.40;;;1.27;;
23155;SDS011;11746;50.876;4.246;2022-10-01T05:20:15;4.07;;;1.65;;
23155;SDS011;11746;50.876;4.246;2022-10-01T05:22:43;3.67;;;2.13;;
23155;SDS011;11746;50.876;4.246;2022-10-01T05:25:10;3.17;;;1.50;;
23155;SDS011;11746;50.876;4.246;2022-10-01T05:27:36;2.30;;;1.40;;
23155;SDS011;11746;50.876;4.246;2022-10-01T05:30:05;3.25;;;1.35;;
23155;SDS011;11746;50.876;4.246;2022-10-01T05:32:32;3.53;;;1.42;;
23155;SDS011;11746;50.876;4.246;2022-10-01T05:34:58;2.53;;;1.30;;
23155;SDS011;11746;50.876;4.246;2022-10-01T05:37:24;2.67;;;1.50;;
23155;SDS011;11746;50.876;4.246;2022-10-01T05:39:50;1.52;;;1.08;;
23155;SDS011;11746;50.876;4.246;2022-10-01T05:42:15;3.00;;;1.58;;
23155;SDS011;11746;50.876;4.246;2022-10-01T05:44:41;2.25;;;1.40;;
23155;SDS011;11746;50.876;4.246;2022-10-01T05:47:10;3.22;;;1.40;;
23155;SDS011;11746;50.876;4.246;2022-10-01T05:49:39;5.72;;;1.83;;
23155;SDS011;11746;50.876;4.246;2022-10-01T05:52:07;4.43;;;1.58;;
23155;SDS011;11746;50.876;4.246;2022-10-01T05:54:34;4.13;;;1.83;;
23155;SDS011;11746;50.876;4.246;2022-10-01T05:57:04;4.03;;;2.13;;
23155;SDS011;11746;50.876;4.246;2022-10-01T05:59:32;4.30;;;1.48;;
23155;SDS011;11746;50.876;4.246;2022-10-01T06:01:58;5.80;;;1.73;;
23155;SDS011;11746;50.876;4.246;2022-10-01T06:04:24;4.65;;;1.70;;
23155;SDS011;11746;50.876;4.246;2022-10-01T06:06:50;3.88;;;1.77;;
23155;SDS011;11746;50.876;4.246;2022-10-01T06:09:18;4.50;;;2.05;;
23155;SDS011;11746;50.876;4.246;2022-10-01T06:11:43;3.97;;;2.10;;
23155;SDS011;11746;50.876;4.246;2022-10-01T06:14:10;5.90;;;2.30;;
23155;SDS011;11746;50.876;4.246;2022-10-01T06:16:38;5.78;;;2.20;;
23155;SDS011;11746;50.876;4.246;2022-10-01T06:19:04;4.55;;;2.42;;
23155;SDS011;11746;50.876;4.246;2022-10-01T06:21:30;6.25;;;3.00;;
23155;SDS011;11746;50.876;4.246;2022-10-01T06:23:56;3.88;;;2.60;;
23155;SDS011;11746;50.876;4.246;2022-10-01T06:26:22;4.20;;;2.40;;
23155;SDS011;11746;50.876;4.246;2022-10-01T06:28:51;7.18;;;2.47;;
23155;SDS011;11746;50.876;4.246;2022-10-01T06:31:17;4.07;;;2.47;;
23155;SDS011;11746;50.876;4.246;2022-10-01T06:33:44;6.30;;;3.13;;
23155;SDS011;11746;50.876;4.246;2022-10-01T06:36:09;4.22;;;2.88;;
23155;SDS011;11746;50.876;4.246;2022-10-01T06:38:36;5.78;;;3.10;;
23155;SDS011;11746;50.876;4.246;2022-10-01T06:41:02;8.00;;;3.63;;
23155;SDS011;11746;50.876;4.246;2022-10-01T06:43:29;7.30;;;4.25;;
23155;SDS011;11746;50.876;4.246;2022-10-01T06:46:03;7.38;;;4.43;;
23155;SDS011;11746;50.876;4.246;2022-10-01T06:48:29;9.52;;;4.93;;
23155;SDS011;11746;50.876;4.246;2022-10-01T06:50:58;8.25;;;5.10;;
23155;SDS011;11746;50.876;4.246;2022-10-01T06:53:25;7.97;;;5.00;;
23155;SDS011;11746;50.876;4.246;2022-10-01T06:55:52;8.20;;;4.93;;
23155;SDS011;11746;50.876;4.246;2022-10-01T06:58:19;7.75;;;5.25;;
23155;SDS011;11746;50.876;4.246;2022-10-01T07:00:46;11.85;;;5.18;;
23155;SDS011;11746;50.876;4.246;2022-10-01T07:03:16;7.45;;;4.68;;
23155;SDS011;11746;50.876;4.246;2022-10-01T07:05:46;7.78;;;4.90;;
23155;SDS011;11746;50.876;4.246;2022-10-01T07:08:13;8.75;;;4.75;;
23155;SDS011;11746;50.876;4.246;2022-10-01T07:10:39;16.65;;;5.50;;
23155;SDS011;11746;50.876;4.246;2022-10-01T07:13:09;8.40;;;4.40;;
23155;SDS011;11746;50.876;4.246;2022-10-01T07:15:35;9.82;;;4.88;;
23155;SDS011;11746;50.876;4.246;2022-10-01T07:18:01;13.40;;;4.90;;
23155;SDS011;11746;50.876;4.246;2022-10-01T07:20:29;10.68;;;4.63;;
23155;SDS011;11746;50.876;4.246;2022-10-01T07:23:00;10.88;;;4.45;;
23155;SDS011;11746;50.876;4.246;2022-10-01T07:25:26;13.13;;;5.10;;
23155;SDS011;11746;50.876;4.246;2022-10-01T07:27:53;12.32;;;4.18;;
23155;SDS011;11746;50.876;4.246;2022-10-01T07:30:22;10.52;;;4.28;;
23155;SDS011;11746;50.876;4.246;2022-10-01T07:32:48;14.40;;;3.92;;
23155;SDS011;11746;50.876;4.246;2022-10-01T07:35:14;10.75;;;4.20;;
23155;SDS011;11746;50.876;4.246;2022-10-01T07:37:40;11.93;;;3.50;;
23155;SDS011;11746;50.876;4.246;2022-10-01T07:40:08;14.07;;;4.07;;
23155;SDS011;11746;50.876;4.246;2022-10-01T07:42:37;14.10;;;4.03;;
23155;SDS011;11746;50.876;4.246;2022-10-01T07:45:03;12.88;;;3.70;;
23155;SDS011;11746;50.876;4.246;2022-10-01T07:47:30;13.55;;;3.58;;
23155;SDS011;11746;50.876;4.246;2022-10-01T07:49:56;12.48;;;3.13;;
23155;SDS011;11746;50.876;4.246;2022-10-01T07:52:21;15.50;;;3.22;;
23155;SDS011;11746;50.876;4.246;2022-10-01T07:54:49;14.52;;;3.15;;
23155;SDS011;11746;50.876;4.246;2022-10-01T07:57:17;11.45;;;2.95;;
23155;SDS011;11746;50.876;4.246;2022-10-01T07:59:43;14.80;;;3.25;;
23155;SDS011;11746;50.876;4.246;2022-10-01T08:02:11;10.48;;;2.90;;
23155;SDS011;11746;50.876;4.246;2022-10-01T08:04:41;15.02;;;3.53;;
23155;SDS011;11746;50.876;4.246;2022-10-01T08:07:31;13.75;;;3.13;;
23155;SDS011;11746;50.876;4.246;2022-10-01T08:10:00;15.18;;;3.05;;
23155;SDS011;11746;50.876;4.246;2022-10-01T08:12:30;10.48;;;3.08;;
23155;SDS011;11746;50.876;4.246;2022-10-01T08:14:56;16.05;;;3.05;;
23155;SDS011;11746;50.876;4.246;2022-10-01T08:17:22;15.70;;;3.22;;
23155;SDS011;11746;50.876;4.246;2022-10-01T08:19:47;12.00;;;2.53;;
23155;SDS011;11746;50.876;4.246;2022-10-01T08:22:13;17.40;;;3.42;;
23155;SDS011;11746;50.876;4.246;2022-10-01T08:24:38;12.82;;;3.13;;
23155;SDS011;11746;50.876;4.246;2022-10-01T08:27:04;14.77;;;3.47;;
23155;SDS011;11746;50.876;4.246;2022-10-01T08:29:37;17.98;;;3.15;;
23155;SDS011;11746;50.876;4.246;2022-10-01T08:32:07;15.38;;;3.13;;
23155;SDS011;11746;50.876;4.246;2022-10-01T08:34:34;13.43;;;3.60;;
23155;SDS011;11746;50.876;4.246;2022-10-01T08:37:04;17.58;;;3.38;;
23155;SDS011;11746;50.876;4.246;2022-10-01T08:39:30;14.57;;;3.83;;
23155;SDS011;11746;50.876;4.246;2022-10-01T08:44:59;16.83;;;5.00;;
23155;SDS011;11746;50.876;4.246;2022-10-01T08:47:33;18.77;;;4.85;;
23155;SDS011;11746;50.876;4.246;2022-10-01T08:50:05;17.70;;;4.80;;
23155;SDS011;11746;50.876;4.246;2022-10-01T08:52:40;16.10;;;4.22;;
23155;SDS011;11746;50.876;4.246;2022-10-01T08:55:21;16.98;;;4.57;;
23155;SDS011;11746;50.876;4.246;2022-10-01T08:57:55;14.68;;;4.35;;
23155;SDS011;11746;50.876;4.246;2022-10-01T09:00:29;16.70;;;4.72;;
23155;SDS011;11746;50.876;4.246;2022-10-01T09:02:58;17.00;;;5.93;;
23155;SDS011;11746;50.876;4.246;2022-10-01T09:05:45;12.82;;;4.60;;
23155;SDS011;11746;50.876;4.246;2022-10-01T09:08:45;18.20;;;4.97;;
23155;SDS011;11746;50.876;4.246;2022-10-01T09:14:20;16.25;;;4.88;;
23155;SDS011;11746;50.876;4.246;2022-10-01T09:17:02;15.13;;;4.80;;
23155;SDS011;11746;50.876;4.246;2022-10-01T09:22:17;16.73;;;4.70;;
23155;SDS011;11746;50.876;4.246;2022-10-01T09:24:53;9.75;;;4.05;;
23155;SDS011;11746;50.876;4.246;2022-10-01T09:27:27;14.07;;;4.72;;
23155;SDS011;11746;50.876;4.246;2022-10-01T09:30:01;15.55;;;4.95;;
23155;SDS011;11746;50.876;4.246;2022-10-01T09:32:39;16.15;;;4.13;;
23155;SDS011;11746;50.876;4.246;2022-10-01T09:37:56;20.00;;;5.22;;
23155;SDS011;11746;50.876;4.246;2022-10-01T09:40:34;13.90;;;3.88;;
23155;SDS011;11746;50.876;4.246;2022-10-01T09:43:01;14.38;;;4.07;;
23155;SDS011;11746;50.876;4.246;2022-10-01T09:45:33;15.63;;;4.15;;
23155;SDS011;11746;50.876;4.246;2022-10-01T09:51:18;14.30;;;4.10;;
23155;SDS011;11746;50.876;4.246;2022-10-01T09:56:26;15.50;;;3.92;;
23155;SDS011;11746;50.876;4.246;2022-10-01T09:58:56;13.93;;;4.10;;
23155;SDS011;11746;50.876;4.246;2022-10-01T10:01:29;15.23;;;4.30;;
23155;SDS011;11746;50.876;4.246;2022-10-01T10:04:08;10.85;;;3.88;;
23155;SDS011;11746;50.876;4.246;2022-10-01T10:06:34;9.93;;;3.92;;
23155;SDS011;11746;50.876;4.246;2022-10-01T10:09:00;16.98;;;3.80;;
23155;SDS011;11746;50.876;4.246;2022-10-01T10:11:27;13.85;;;3.88;;
23155;SDS011;11746;50.876;4.246;2022-10-01T10:13:56;13.45;;;3.80;;
23155;SDS011;11746;50.876;4.246;2022-10-01T10:16:28;18.92;;;3.85;;
23155;SDS011;11746;50.876;4.246;2022-10-01T10:19:01;15.35;;;4.07;;
23155;SDS011;11746;50.876;4.246;2022-10-01T10:21:47;13.93;;;3.78;;
23155;SDS011;11746;50.876;4.246;2022-10-01T10:24:26;11.30;;;4.55;;
23155;SDS011;11746;50.876;4.246;2022-10-01T10:26:57;13.07;;;4.47;;
23155;SDS011;11746;50.876;4.246;2022-10-01T10:29:29;11.23;;;3.78;;
23155;SDS011;11746;50.876;4.246;2022-10-01T10:32:01;12.23;;;4.13;;
23155;SDS011;11746;50.876;4.246;2022-10-01T10:34:44;10.90;;;3.97;;
23155;SDS011;11746;50.876;4.246;2022-10-01T10:37:18;13.52;;;4.10;;
23155;SDS011;11746;50.876;4.246;2022-10-01T10:39:51;12.80;;;3.72;;
23155;SDS011;11746;50.876;4.246;2022-10-01T10:42:23;10.50;;;4.05;;
23155;SDS011;11746;50.876;4.246;2022-10-01T10:44:55;13.65;;;4.03;;
23155;SDS011;11746;50.876;4.246;2022-10-01T10:47:28;16.23;;;4.32;;
23155;SDS011;11746;50.876;4.246;2022-10-01T10:49:56;13.13;;;3.90;;
23155;SDS011;11746;50.876;4.246;2022-10-01T10:52:34;11.90;;;3.85;;
23155;SDS011;11746;50.876;4.246;2022-10-01T10:55:18;11.25;;;2.60;;
23155;SDS011;11746;50.876;4.246;2022-10-01T10:57:46;14.45;;;3.47;;
23155;SDS011;11746;50.876;4.246;2022-10-01T11:00:17;13.88;;;2.47;;
23155;SDS011;11746;50.876;4.246;2022-10-01T11:03:03;9.38;;;1.98;;
23155;SDS011;11746;50.876;4.246;2022-10-01T11:05:31;9.50;;;1.88;;
23155;SDS011;11746;50.876;4.246;2022-10-01T11:08:05;6.75;;;1.77;;
23155;SDS011;11746;50.876;4.246;2022-10-01T11:10:43;8.10;;;1.88;;
23155;SDS011;11746;50.876;4.246;2022-10-01T11:13:21;11.20;;;2.20;;
23155;SDS011;11746;50.876;4.246;2022-10-01T11:16:00;11.00;;;1.88;;
23155;SDS011;11746;50.876;4.246;2022-10-01T11:27:31;13.18;;;3.20;;
23155;SDS011;11746;50.876;4.246;2022-10-01T11:30:04;11.77;;;3.33;;
23155;SDS011;11746;50.876;4.246;2022-10-01T11:38:39;14.25;;;2.90;;
23155;SDS011;11746;50.876;4.246;2022-10-01T11:43:59;12.98;;;3.10;;
23155;SDS011;11746;50.876;4.246;2022-10-01T11:46:34;11.73;;;2.45;;
23155;SDS011;11746;50.876;4.246;2022-10-01T11:57:22;11.55;;;2.67;;
23155;SDS011;11746;50.876;4.246;2022-10-01T12:00:08;12.70;;;2.47;;
23155;SDS011;11746;50.876;4.246;2022-10-01T12:02:47;9.38;;;2.03;;
23155;SDS011;11746;50.876;4.246;2022-10-01T12:05:19;10.73;;;2.08;;
23155;SDS011;11746;50.876;4.246;2022-10-01T12:07:50;6.90;;;1.60;;
23155;SDS011;11746;50.876;4.246;2022-10-01T12:10:30;6.90;;;1.73;;
23155;SDS011;11746;50.876;4.246;2022-10-01T12:13:11;8.05;;;1.40;;
23155;SDS011;11746;50.876;4.246;2022-10-01T12:15:57;5.72;;;1.23;;
23155;SDS011;11746;50.876;4.246;2022-10-01T12:18:31;8.07;;;1.48;;
23155;SDS011;11746;50.876;4.246;2022-10-01T12:21:25;10.18;;;1.83;;
23155;SDS011;11746;50.876;4.246;2022-10-01T12:24:04;8.82;;;1.45;;
23155;SDS011;11746;50.876;4.246;2022-10-01T12:27:01;10.65;;;1.80;;
23155;SDS011;11746;50.876;4.246;2022-10-01T12:29:49;9.63;;;1.95;;
23155;SDS011;11746;50.876;4.246;2022-10-01T12:40:45;8.60;;;1.80;;
23155;SDS011;11746;50.876;4.246;2022-10-01T12:49:07;10.23;;;2.25;;
23155;SDS011;11746;50.876;4.246;2022-10-01T12:52:02;7.00;;;1.60;;
23155;SDS011;11746;50.876;4.246;2022-10-01T12:57:28;12.50;;;2.20;;
23155;SDS011;11746;50.876;4.246;2022-10-01T13:14:00;7.85;;;2.00;;
23155;SDS011;11746;50.876;4.246;2022-10-01T13:16:37;9.00;;;1.92;;
23155;SDS011;11746;50.876;4.246;2022-10-01T13:19:22;7.15;;;1.70;;
23155;SDS011;11746;50.876;4.246;2022-10-01T13:24:49;14.13;;;2.33;;
23155;SDS011;11746;50.876;4.246;2022-10-01T13:27:34;7.30;;;1.60;;
23155;SDS011;11746;50.876;4.246;2022-10-01T13:30:17;7.40;;;1.70;;
23155;SDS011;11746;50.876;4.246;2022-10-01T13:32:49;15.18;;;1.80;;
23155;SDS011;11746;50.876;4.246;2022-10-01T13:38:29;9.85;;;2.05;;
23155;SDS011;11746;50.876;4.246;2022-10-01T13:40:56;7.78;;;1.73;;
23155;SDS011;11746;50.876;4.246;2022-10-01T13:43:25;10.27;;;2.78;;
23155;SDS011;11746;50.876;4.246;2022-10-01T13:45:54;11.35;;;1.75;;
23155;SDS011;11746;50.876;4.246;2022-10-01T13:48:29;7.22;;;1.75;;
23155;SDS011;11746;50.876;4.246;2022-10-01T13:51:00;4.82;;;1.38;;
23155;SDS011;11746;50.876;4.246;2022-10-01T13:53:34;7.38;;;1.60;;
23155;SDS011;11746;50.876;4.246;2022-10-01T13:56:08;7.78;;;1.77;;
23155;SDS011;11746;50.876;4.246;2022-10-01T13:58:42;9.35;;;1.77;;
23155;SDS011;11746;50.876;4.246;2022-10-01T14:09:09;5.55;;;1.20;;
23155;SDS011;11746;50.876;4.246;2022-10-01T14:12:05;7.85;;;1.23;;
23155;SDS011;11746;50.876;4.246;2022-10-01T14:15:00;9.65;;;1.23;;
23155;SDS011;11746;50.876;4.246;2022-10-01T14:17:55;5.30;;;1.23;;
23155;SDS011;11746;50.876;4.246;2022-10-01T14:20:23;10.02;;;2.25;;
23155;SDS011;11746;50.876;4.246;2022-10-01T14:23:07;12.88;;;2.33;;
23155;SDS011;11746;50.876;4.246;2022-10-01T14:28:36;9.23;;;1.60;;
23155;SDS011;11746;50.876;4.246;2022-10-01T14:31:25;5.93;;;1.20;;
23155;SDS011;11746;50.876;4.246;2022-10-01T14:36:44;8.73;;;2.30;;
23155;SDS011;11746;50.876;4.246;2022-10-01T14:39:14;10.25;;;1.50;;
23155;SDS011;11746;50.876;4.246;2022-10-01T14:41:41;10.52;;;2.00;;
23155;SDS011;11746;50.876;4.246;2022-10-01T14:46:52;11.27;;;2.17;;
23155;SDS011;11746;50.876;4.246;2022-10-01T14:49:24;8.00;;;1.75;;
23155;SDS011;11746;50.876;4.246;2022-10-01T14:54:38;7.00;;;1.80;;
23155;SDS011;11746;50.876;4.246;2022-10-01T14:57:29;10.95;;;1.77;;
23155;SDS011;11746;50.876;4.246;2022-10-01T15:00:00;8.75;;;2.00;;
23155;SDS011;11746;50.876;4.246;2022-10-01T15:02:42;9.00;;;2.22;;
23155;SDS011;11746;50.876;4.246;2022-10-01T15:05:24;8.85;;;1.30;;
23155;SDS011;11746;50.876;4.246;2022-10-01T15:07:51;11.18;;;1.90;;
23155;SDS011;11746;50.876;4.246;2022-10-01T15:10:18;7.97;;;1.98;;
23155;SDS011;11746;50.876;4.246;2022-10-01T15:12:51;8.52;;;1.50;;
23155;SDS011;11746;50.876;4.246;2022-10-01T15:15:38;11.02;;;2.25;;
23155;SDS011;11746;50.876;4.246;2022-10-01T15:18:05;7.25;;;1.52;;
23155;SDS011;11746;50.876;4.246;2022-10-01T15:20:32;10.70;;;2.10;;
23155;SDS011;11746;50.876;4.246;2022-10-01T15:22:58;7.50;;;1.55;;
23155;SDS011;11746;50.876;4.246;2022-10-01T15:25:26;6.78;;;2.10;;
23155;SDS011;11746;50.876;4.246;2022-10-01T15:27:54;8.02;;;1.90;;
23155;SDS011;11746;50.876;4.246;2022-10-01T15:30:21;7.85;;;2.00;;
23155;SDS011;11746;50.876;4.246;2022-10-01T15:32:49;10.68;;;1.70;;
23155;SDS011;11746;50.876;4.246;2022-10-01T15:35:19;9.52;;;1.70;;
23155;SDS011;11746;50.876;4.246;2022-10-01T15:37:47;8.27;;;2.13;;
23155;SDS011;11746;50.876;4.246;2022-10-01T15:40:36;8.02;;;1.77;;
23155;SDS011;11746;50.876;4.246;2022-10-01T15:48:43;11.70;;;2.15;;
23155;SDS011;11746;50.876;4.246;2022-10-01T15:51:22;12.07;;;1.73;;
23155;SDS011;11746;50.876;4.246;2022-10-01T15:53:51;8.13;;;1.50;;
23155;SDS011;11746;50.876;4.246;2022-10-01T15:56:26;14.45;;;2.50;;
23155;SDS011;11746;50.876;4.246;2022-10-01T15:58:55;8.07;;;1.67;;
23155;SDS011;11746;50.876;4.246;2022-10-01T16:01:28;6.63;;;1.70;;
23155;SDS011;11746;50.876;4.246;2022-10-01T16:06:35;9.55;;;2.17;;
23155;SDS011;11746;50.876;4.246;2022-10-01T16:09:13;12.10;;;2.07;;
23155;SDS011;11746;50.876;4.246;2022-10-01T16:11:56;8.30;;;2.20;;
23155;SDS011;11746;50.876;4.246;2022-10-01T16:14:27;13.40;;;2.50;;
23155;SDS011;11746;50.876;4.246;2022-10-01T16:19:42;7.30;;;1.80;;
23155;SDS011;11746;50.876;4.246;2022-10-01T16:22:18;9.75;;;2.00;;
23155;SDS011;11746;50.876;4.246;2022-10-01T16:24:48;12.57;;;2.30;;
23155;SDS011;11746;50.876;4.246;2022-10-01T16:29:53;12.80;;;2.15;;
23155;SDS011;11746;50.876;4.246;2022-10-01T16:32:27;9.20;;;2.00;;
23155;SDS011;11746;50.876;4.246;2022-10-01T16:35:06;11.13;;;2.17;;
23155;SDS011;11746;50.876;4.246;2022-10-01T16:37:39;6.15;;;1.48;;
23155;SDS011;11746;50.876;4.246;2022-10-01T16:40:05;8.90;;;1.65;;
23155;SDS011;11746;50.876;4.246;2022-10-01T16:42:32;11.93;;;2.30;;
23155;SDS011;11746;50.876;4.246;2022-10-01T16:45:01;10.30;;;2.05;;
23155;SDS011;11746;50.876;4.246;2022-10-01T16:47:29;10.20;;;1.98;;
23155;SDS011;11746;50.876;4.246;2022-10-01T16:49:55;8.45;;;1.77;;
23155;SDS011;11746;50.876;4.246;2022-10-01T16:52:21;8.20;;;2.05;;
23155;SDS011;11746;50.876;4.246;2022-10-01T16:54:47;8.50;;;1.50;;
23155;SDS011;11746;50.876;4.246;2022-10-01T16:57:13;7.97;;;1.77;;
23155;SDS011;11746;50.876;4.246;2022-10-01T16:59:40;8.73;;;1.63;;
23155;SDS011;11746;50.876;4.246;2022-10-01T17:02:13;9.45;;;1.85;;
23155;SDS011;11746;50.876;4.246;2022-10-01T17:04:40;11.40;;;1.75;;
23155;SDS011;11746;50.876;4.246;2022-10-01T17:07:07;9.13;;;1.55;;
23155;SDS011;11746;50.876;4.246;2022-10-01T17:09:34;13.45;;;2.05;;
23155;SDS011;11746;50.876;4.246;2022-10-01T17:12:01;10.93;;;2.13;;
23155;SDS011;11746;50.876;4.246;2022-10-01T17:14:30;8.55;;;2.00;;
23155;SDS011;11746;50.876;4.246;2022-10-01T17:16:56;12.45;;;1.80;;
23155;SDS011;11746;50.876;4.246;2022-10-01T17:19:22;12.80;;;2.13;;
23155;SDS011;11746;50.876;4.246;2022-10-01T17:21:48;7.68;;;2.00;;
23155;SDS011;11746;50.876;4.246;2022-10-01T17:24:15;13.77;;;2.38;;
23155;SDS011;11746;50.876;4.246;2022-10-01T17:26:42;11.35;;;2.08;;
23155;SDS011;11746;50.876;4.246;2022-10-01T17:29:09;9.40;;;1.92;;